sensor_id;sensor_type;location;lat;lon;timestamp;P1;durP1;ratioP1;P2;durP2;ratioP2
3943;SDS011;1986;52.546;13.428;2024-03-29T00:00:17;19.53;;;18.70;;
3943;SDS011;1986;52.546;13.428;2024-03-29T00:02:43;19.77;;;18.87;;
3943;SDS011;1986;52.546;13.428;2024-03-29T00:05:09;19.40;;;18.60;;
3943;SDS011;1986;52.546;13.428;2024-03-29T00:07:35;19.70;;;18.80;;
3943;SDS011;1986;52.546;13.428;2024-03-29T00:10:02;19.00;;;18.20;;
3943;SDS011;1986;52.546;13.428;2024-03-29T00:12:29;18.70;;;17.90;;
3943;SDS011;1986;52.546;13.428;2024-03-29T00:14:55;19.20;;;18.40;;
3943;SDS011;1986;52.546;13.428;2024-03-29T00:17:21;18.53;;;17.73;;
3943;SDS011;1986;52.546;13.428;2024-03-29T00:19:47;18.70;;;17.90;;
3943;SDS011;1986;52.546;13.428;2024-03-29T00:22:13;18.40;;;17.60;;
3943;SDS011;1986;52.546;13.428;2024-03-29T00:24:42;18.50;;;17.70;;
3943;SDS011;1986;52.546;13.428;2024-03-29T00:27:08;18.57;;;17.77;;
3943;SDS011;1986;52.546;13.428;2024-03-29T00:29:36;19.67;;;18.77;;
3943;SDS011;1986;52.546;13.428;2024-03-29T00:32:02;19.50;;;18.70;;
3943;SDS011;1986;52.546;13.428;2024-03-29T00:34:28;19.60;;;18.80;;
3943;SDS011;1986;52.546;13.428;2024-03-29T00:36:54;19.70;;;18.90;;
3943;SDS011;1986;52.546;13.428;2024-03-29T00:39:20;20.10;;;19.20;;
3943;SDS011;1986;52.546;13.428;2024-03-29T00:41:46;20.33;;;19.43;;
3943;SDS011;1986;52.546;13.428;2024-03-29T00:44:12;20.40;;;19.50;;
3943;SDS011;1986;52.546;13.428;2024-03-29T00:46:40;19.90;;;19.00;;
3943;SDS011;1986;52.546;13.428;2024-03-29T00:49:06;19.70;;;18.80;;
3943;SDS011;1986;52.546;13.428;2024-03-29T00:51:32;20.10;;;19.20;;
3943;SDS011;1986;52.546;13.428;2024-03-29T00:53:58;20.13;;;19.23;;
3943;SDS011;1986;52.546;13.428;2024-03-29T00:56:24;20.30;;;19.40;;
3943;SDS011;1986;52.546;13.428;2024-03-29T00:58:50;20.60;;;19.70;;
3943;SDS011;1986;52.546;13.428;2024-03-29T01:01:16;19.70;;;18.80;;
3943;SDS011;1986;52.546;13.428;2024-03-29T01:03:43;19.30;;;18.50;;
3943;SDS011;1986;52.546;13.428;2024-03-29T01:06:09;19.70;;;18.90;;
3943;SDS011;1986;52.546;13.428;2024-03-29T01:08:37;19.20;;;18.40;;
3943;SDS011;1986;52.546;13.428;2024-03-29T01:11:03;19.30;;;18.50;;
3943;SDS011;1986;52.546;13.428;2024-03-29T01:13:29;19.03;;;18.33;;
3943;SDS011;1986;52.546;13.428;2024-03-29T01:15:55;18.80;;;18.10;;
3943;SDS011;1986;52.546;13.428;2024-03-29T01:18:21;18.87;;;18.17;;
3943;SDS011;1986;52.546;13.428;2024-03-29T01:20:48;18.07;;;17.43;;
3943;SDS011;1986;52.546;13.428;2024-03-29T01:23:14;17.80;;;17.20;;
3943;SDS011;1986;52.546;13.428;2024-03-29T01:25:41;17.37;;;16.77;;
3943;SDS011;1986;52.546;13.428;2024-03-29T01:28:07;16.50;;;16.00;;
3943;SDS011;1986;52.546;13.428;2024-03-29T01:30:35;16.40;;;15.90;;
3943;SDS011;1986;52.546;13.428;2024-03-29T01:33:01;16.27;;;15.77;;
3943;SDS011;1986;52.546;13.428;2024-03-29T01:35:28;16.00;;;15.50;;
3943;SDS011;1986;52.546;13.428;2024-03-29T01:37:55;15.83;;;15.33;;
3943;SDS011;1986;52.546;13.428;2024-03-29T01:40:21;15.30;;;14.90;;
3943;SDS011;1986;52.546;13.428;2024-03-29T01:42:47;15.00;;;14.60;;
3943;SDS011;1986;52.546;13.428;2024-03-29T01:45:13;15.10;;;14.70;;
3943;SDS011;1986;52.546;13.428;2024-03-29T01:47:41;14.80;;;14.40;;
3943;SDS011;1986;52.546;13.428;2024-03-29T01:50:10;14.40;;;14.10;;
3943;SDS011;1986;52.546;13.428;2024-03-29T01:52:38;14.40;;;14.10;;
3943;SDS011;1986;52.546;13.428;2024-03-29T01:55:07;14.70;;;14.30;;
3943;SDS011;1986;52.546;13.428;2024-03-29T01:57:34;14.20;;;13.90;;
3943;SDS011;1986;52.546;13.428;2024-03-29T02:00:02;14.20;;;13.90;;
3943;SDS011;1986;52.546;13.428;2024-03-29T02:02:30;13.90;;;13.60;;
3943;SDS011;1986;52.546;13.428;2024-03-29T02:04:58;13.90;;;13.60;;
3943;SDS011;1986;52.546;13.428;2024-03-29T02:07:26;13.70;;;13.40;;
3943;SDS011;1986;52.546;13.428;2024-03-29T02:09:53;13.60;;;13.30;;
3943;SDS011;1986;52.546;13.428;2024-03-29T02:12:22;13.60;;;13.30;;
3943;SDS011;1986;52.546;13.428;2024-03-29T02:14:52;13.37;;;13.07;;
3943;SDS011;1986;52.546;13.428;2024-03-29T02:17:18;12.73;;;12.53;;
3943;SDS011;1986;52.546;13.428;2024-03-29T02:19:44;12.70;;;12.50;;
3943;SDS011;1986;52.546;13.428;2024-03-29T02:22:11;13.00;;;12.80;;
3943;SDS011;1986;52.546;13.428;2024-03-29T02:24:46;12.70;;;12.50;;
3943;SDS011;1986;52.546;13.428;2024-03-29T02:27:14;13.10;;;12.80;;
3943;SDS011;1986;52.546;13.428;2024-03-29T02:29:42;13.40;;;13.10;;
3943;SDS011;1986;52.546;13.428;2024-03-29T02:32:09;13.00;;;12.70;;
3943;SDS011;1986;52.546;13.428;2024-03-29T02:34:36;12.90;;;12.70;;
3943;SDS011;1986;52.546;13.428;2024-03-29T02:37:03;13.00;;;12.80;;
3943;SDS011;1986;52.546;13.428;2024-03-29T02:39:31;13.20;;;12.90;;
3943;SDS011;1986;52.546;13.428;2024-03-29T02:41:59;13.07;;;12.77;;
3943;SDS011;1986;52.546;13.428;2024-03-29T02:44:26;13.17;;;12.87;;
3943;SDS011;1986;52.546;13.428;2024-03-29T02:46:53;13.10;;;12.80;;
3943;SDS011;1986;52.546;13.428;2024-03-29T02:49:26;13.10;;;12.80;;
3943;SDS011;1986;52.546;13.428;2024-03-29T02:51:52;13.30;;;13.00;;
3943;SDS011;1986;52.546;13.428;2024-03-29T02:54:19;13.37;;;13.07;;
3943;SDS011;1986;52.546;13.428;2024-03-29T02:56:45;13.33;;;13.03;;
3943;SDS011;1986;52.546;13.428;2024-03-29T02:59:14;13.57;;;13.27;;
3943;SDS011;1986;52.546;13.428;2024-03-29T03:01:40;13.60;;;13.30;;
3943;SDS011;1986;52.546;13.428;2024-03-29T03:04:10;13.40;;;13.10;;
3943;SDS011;1986;52.546;13.428;2024-03-29T03:06:39;13.60;;;13.30;;
3943;SDS011;1986;52.546;13.428;2024-03-29T03:09:06;13.70;;;13.40;;
3943;SDS011;1986;52.546;13.428;2024-03-29T03:11:51;13.70;;;13.40;;
3943;SDS011;1986;52.546;13.428;2024-03-29T03:14:19;13.80;;;13.50;;
3943;SDS011;1986;52.546;13.428;2024-03-29T03:16:46;13.53;;;13.23;;
3943;SDS011;1986;52.546;13.428;2024-03-29T03:19:13;13.70;;;13.40;;
3943;SDS011;1986;52.546;13.428;2024-03-29T03:21:39;13.53;;;13.23;;
3943;SDS011;1986;52.546;13.428;2024-03-29T03:24:06;13.80;;;13.50;;
3943;SDS011;1986;52.546;13.428;2024-03-29T03:26:32;13.50;;;13.20;;
3943;SDS011;1986;52.546;13.428;2024-03-29T03:28:59;13.60;;;13.30;;
3943;SDS011;1986;52.546;13.428;2024-03-29T03:31:26;13.60;;;13.30;;
3943;SDS011;1986;52.546;13.428;2024-03-29T03:33:58;13.40;;;13.10;;
3943;SDS011;1986;52.546;13.428;2024-03-29T03:36:27;13.60;;;13.30;;
3943;SDS011;1986;52.546;13.428;2024-03-29T03:38:54;13.50;;;13.20;;
3943;SDS011;1986;52.546;13.428;2024-03-29T03:41:23;13.30;;;13.00;;
3943;SDS011;1986;52.546;13.428;2024-03-29T03:43:53;13.20;;;12.90;;
3943;SDS011;1986;52.546;13.428;2024-03-29T03:46:21;13.20;;;12.90;;
3943;SDS011;1986;52.546;13.428;2024-03-29T03:48:50;13.10;;;12.80;;
3943;SDS011;1986;52.546;13.428;2024-03-29T03:51:16;13.03;;;12.73;;
3943;SDS011;1986;52.546;13.428;2024-03-29T03:53:42;13.50;;;13.20;;
3943;SDS011;1986;52.546;13.428;2024-03-29T03:56:10;13.40;;;13.10;;
3943;SDS011;1986;52.546;13.428;2024-03-29T03:58:37;13.57;;;13.27;;
3943;SDS011;1986;52.546;13.428;2024-03-29T04:01:05;13.20;;;12.90;;
3943;SDS011;1986;52.546;13.428;2024-03-29T04:03:32;13.37;;;13.07;;
3943;SDS011;1986;52.546;13.428;2024-03-29T04:06:04;13.40;;;13.10;;
3943;SDS011;1986;52.546;13.428;2024-03-29T04:08:31;13.37;;;13.07;;
3943;SDS011;1986;52.546;13.428;2024-03-29T04:10:57;13.60;;;13.30;;
3943;SDS011;1986;52.546;13.428;2024-03-29T04:13:28;13.30;;;13.00;;
3943;SDS011;1986;52.546;13.428;2024-03-29T04:16:00;13.37;;;13.07;;
3943;SDS011;1986;52.546;13.428;2024-03-29T04:18:27;13.10;;;12.80;;
3943;SDS011;1986;52.546;13.428;2024-03-29T04:20:55;13.50;;;13.20;;
3943;SDS011;1986;52.546;13.428;2024-03-29T04:23:24;13.30;;;13.00;;
3943;SDS011;1986;52.546;13.428;2024-03-29T04:25:51;13.60;;;13.30;;
3943;SDS011;1986;52.546;13.428;2024-03-29T04:28:18;13.40;;;13.10;;
3943;SDS011;1986;52.546;13.428;2024-03-29T04:30:50;13.73;;;13.43;;
3943;SDS011;1986;52.546;13.428;2024-03-29T04:33:18;13.43;;;13.13;;
3943;SDS011;1986;52.546;13.428;2024-03-29T04:35:51;13.70;;;13.40;;
3943;SDS011;1986;52.546;13.428;2024-03-29T04:38:19;13.97;;;13.67;;
3943;SDS011;1986;52.546;13.428;2024-03-29T04:40:48;14.00;;;13.70;;
3943;SDS011;1986;52.546;13.428;2024-03-29T04:43:15;13.50;;;13.20;;
3943;SDS011;1986;52.546;13.428;2024-03-29T04:45:42;13.70;;;13.40;;
3943;SDS011;1986;52.546;13.428;2024-03-29T04:48:10;13.97;;;13.67;;
3943;SDS011;1986;52.546;13.428;2024-03-29T04:50:37;14.13;;;13.83;;
3943;SDS011;1986;52.546;13.428;2024-03-29T04:53:04;14.10;;;13.80;;
3943;SDS011;1986;52.546;13.428;2024-03-29T04:55:32;14.00;;;13.70;;
3943;SDS011;1986;52.546;13.428;2024-03-29T04:58:00;14.10;;;13.80;;
3943;SDS011;1986;52.546;13.428;2024-03-29T05:00:28;14.03;;;13.73;;
3943;SDS011;1986;52.546;13.428;2024-03-29T05:02:57;14.20;;;13.90;;
3943;SDS011;1986;52.546;13.428;2024-03-29T05:05:23;14.50;;;14.10;;
3943;SDS011;1986;52.546;13.428;2024-03-29T05:07:50;14.37;;;13.97;;
3943;SDS011;1986;52.546;13.428;2024-03-29T05:10:17;14.20;;;13.90;;
3943;SDS011;1986;52.546;13.428;2024-03-29T05:12:47;14.10;;;13.80;;
3943;SDS011;1986;52.546;13.428;2024-03-29T05:15:17;14.10;;;13.80;;
3943;SDS011;1986;52.546;13.428;2024-03-29T05:17:44;14.17;;;13.87;;
3943;SDS011;1986;52.546;13.428;2024-03-29T05:20:11;14.17;;;13.87;;
3943;SDS011;1986;52.546;13.428;2024-03-29T05:22:38;14.20;;;13.90;;
3943;SDS011;1986;52.546;13.428;2024-03-29T05:25:07;14.30;;;14.00;;
3943;SDS011;1986;52.546;13.428;2024-03-29T05:27:34;14.90;;;14.50;;
3943;SDS011;1986;52.546;13.428;2024-03-29T05:30:01;14.50;;;14.10;;
3943;SDS011;1986;52.546;13.428;2024-03-29T05:32:29;14.90;;;14.50;;
3943;SDS011;1986;52.546;13.428;2024-03-29T05:34:56;15.03;;;14.63;;
3943;SDS011;1986;52.546;13.428;2024-03-29T05:37:23;15.13;;;14.73;;
3943;SDS011;1986;52.546;13.428;2024-03-29T05:39:51;15.00;;;14.60;;
3943;SDS011;1986;52.546;13.428;2024-03-29T05:42:24;15.10;;;14.70;;
3943;SDS011;1986;52.546;13.428;2024-03-29T05:44:52;15.30;;;14.80;;
3943;SDS011;1986;52.546;13.428;2024-03-29T05:47:20;15.10;;;14.70;;
3943;SDS011;1986;52.546;13.428;2024-03-29T05:49:49;14.70;;;14.30;;
3943;SDS011;1986;52.546;13.428;2024-03-29T05:52:16;15.17;;;14.77;;
3943;SDS011;1986;52.546;13.428;2024-03-29T05:54:44;15.30;;;14.90;;
3943;SDS011;1986;52.546;13.428;2024-03-29T05:57:11;15.37;;;14.97;;
3943;SDS011;1986;52.546;13.428;2024-03-29T05:59:38;15.40;;;15.00;;
3943;SDS011;1986;52.546;13.428;2024-03-29T06:02:05;15.80;;;15.30;;
3943;SDS011;1986;52.546;13.428;2024-03-29T06:04:32;15.53;;;15.10;;
3943;SDS011;1986;52.546;13.428;2024-03-29T06:07:05;15.70;;;15.20;;
3943;SDS011;1986;52.546;13.428;2024-03-29T06:09:33;15.80;;;15.30;;
3943;SDS011;1986;52.546;13.428;2024-03-29T06:11:59;16.00;;;15.50;;
3943;SDS011;1986;52.546;13.428;2024-03-29T06:14:26;15.90;;;15.40;;
3943;SDS011;1986;52.546;13.428;2024-03-29T06:17:10;15.97;;;15.47;;
3943;SDS011;1986;52.546;13.428;2024-03-29T06:19:50;15.80;;;15.30;;
3943;SDS011;1986;52.546;13.428;2024-03-29T06:22:21;16.10;;;15.60;;
3943;SDS011;1986;52.546;13.428;2024-03-29T06:24:49;16.20;;;15.70;;
3943;SDS011;1986;52.546;13.428;2024-03-29T06:27:16;16.00;;;15.50;;
3943;SDS011;1986;52.546;13.428;2024-03-29T06:29:45;16.43;;;15.93;;
3943;SDS011;1986;52.546;13.428;2024-03-29T06:32:13;16.40;;;15.90;;
3943;SDS011;1986;52.546;13.428;2024-03-29T06:34:41;16.97;;;16.37;;
3943;SDS011;1986;52.546;13.428;2024-03-29T06:37:10;16.80;;;16.20;;
3943;SDS011;1986;52.546;13.428;2024-03-29T06:39:42;16.80;;;16.20;;
3943;SDS011;1986;52.546;13.428;2024-03-29T06:42:10;16.90;;;16.30;;
3943;SDS011;1986;52.546;13.428;2024-03-29T06:44:37;16.60;;;16.00;;
3943;SDS011;1986;52.546;13.428;2024-03-29T06:47:04;16.80;;;16.20;;
3943;SDS011;1986;52.546;13.428;2024-03-29T06:49:31;16.50;;;15.90;;
3943;SDS011;1986;52.546;13.428;2024-03-29T06:51:58;16.70;;;16.10;;
3943;SDS011;1986;52.546;13.428;2024-03-29T06:54:26;16.77;;;16.17;;
3943;SDS011;1986;52.546;13.428;2024-03-29T06:56:55;16.93;;;16.33;;
3943;SDS011;1986;52.546;13.428;2024-03-29T06:59:23;16.70;;;16.10;;
3943;SDS011;1986;52.546;13.428;2024-03-29T07:01:50;16.70;;;16.10;;
3943;SDS011;1986;52.546;13.428;2024-03-29T07:04:18;17.03;;;16.43;;
3943;SDS011;1986;52.546;13.428;2024-03-29T07:06:45;16.60;;;16.00;;
3943;SDS011;1986;52.546;13.428;2024-03-29T07:09:16;16.50;;;15.90;;
3943;SDS011;1986;52.546;13.428;2024-03-29T07:11:43;16.50;;;15.90;;
3943;SDS011;1986;52.546;13.428;2024-03-29T07:14:12;16.50;;;15.90;;
3943;SDS011;1986;52.546;13.428;2024-03-29T07:16:39;16.30;;;15.70;;
3943;SDS011;1986;52.546;13.428;2024-03-29T07:19:06;16.80;;;16.10;;
3943;SDS011;1986;52.546;13.428;2024-03-29T07:21:34;16.80;;;16.10;;
3943;SDS011;1986;52.546;13.428;2024-03-29T07:24:06;16.93;;;16.23;;
3943;SDS011;1986;52.546;13.428;2024-03-29T07:26:34;17.00;;;16.30;;
3943;SDS011;1986;52.546;13.428;2024-03-29T07:29:01;17.00;;;16.30;;
3943;SDS011;1986;52.546;13.428;2024-03-29T07:31:31;17.13;;;16.43;;
3943;SDS011;1986;52.546;13.428;2024-03-29T07:33:58;17.47;;;16.77;;
3943;SDS011;1986;52.546;13.428;2024-03-29T07:36:26;17.40;;;16.70;;
3943;SDS011;1986;52.546;13.428;2024-03-29T07:38:56;17.93;;;17.23;;
3943;SDS011;1986;52.546;13.428;2024-03-29T07:41:25;17.30;;;16.60;;
3943;SDS011;1986;52.546;13.428;2024-03-29T07:43:54;18.20;;;17.40;;
3943;SDS011;1986;52.546;13.428;2024-03-29T07:46:27;18.40;;;17.60;;
3943;SDS011;1986;52.546;13.428;2024-03-29T07:48:56;18.70;;;17.80;;
3943;SDS011;1986;52.546;13.428;2024-03-29T07:51:25;18.40;;;17.60;;
3943;SDS011;1986;52.546;13.428;2024-03-29T07:53:52;18.53;;;17.73;;
3943;SDS011;1986;52.546;13.428;2024-03-29T07:56:19;18.30;;;17.50;;
3943;SDS011;1986;52.546;13.428;2024-03-29T07:58:50;18.50;;;17.70;;
3943;SDS011;1986;52.546;13.428;2024-03-29T08:01:23;18.50;;;17.70;;
3943;SDS011;1986;52.546;13.428;2024-03-29T08:03:51;18.70;;;17.90;;
3943;SDS011;1986;52.546;13.428;2024-03-29T08:06:20;20.00;;;19.00;;
3943;SDS011;1986;52.546;13.428;2024-03-29T08:08:50;19.43;;;18.53;;
3943;SDS011;1986;52.546;13.428;2024-03-29T08:11:17;19.30;;;18.40;;
3943;SDS011;1986;52.546;13.428;2024-03-29T08:13:44;19.73;;;18.83;;
3943;SDS011;1986;52.546;13.428;2024-03-29T08:16:11;19.90;;;18.90;;
3943;SDS011;1986;52.546;13.428;2024-03-29T08:18:42;19.90;;;18.90;;
3943;SDS011;1986;52.546;13.428;2024-03-29T08:21:11;19.93;;;19.03;;
3943;SDS011;1986;52.546;13.428;2024-03-29T08:23:40;19.43;;;18.53;;
3943;SDS011;1986;52.546;13.428;2024-03-29T08:26:10;19.10;;;18.20;;
3943;SDS011;1986;52.546;13.428;2024-03-29T08:28:37;18.93;;;18.10;;
3943;SDS011;1986;52.546;13.428;2024-03-29T08:31:04;19.47;;;18.57;;
3943;SDS011;1986;52.546;13.428;2024-03-29T08:33:34;19.07;;;18.20;;
3943;SDS011;1986;52.546;13.428;2024-03-29T08:36:02;18.80;;;18.00;;
3943;SDS011;1986;52.546;13.428;2024-03-29T08:38:30;18.70;;;17.90;;
3943;SDS011;1986;52.546;13.428;2024-03-29T08:40:58;18.90;;;18.10;;
3943;SDS011;1986;52.546;13.428;2024-03-29T08:43:25;18.70;;;17.90;;
3943;SDS011;1986;52.546;13.428;2024-03-29T08:45:55;19.00;;;18.20;;
3943;SDS011;1986;52.546;13.428;2024-03-29T08:48:22;18.50;;;17.70;;
3943;SDS011;1986;52.546;13.428;2024-03-29T08:50:50;18.77;;;17.97;;
3943;SDS011;1986;52.546;13.428;2024-03-29T08:53:17;18.90;;;18.10;;
3943;SDS011;1986;52.546;13.428;2024-03-29T08:55:45;18.50;;;17.70;;
3943;SDS011;1986;52.546;13.428;2024-03-29T08:58:17;18.60;;;17.80;;
3943;SDS011;1986;52.546;13.428;2024-03-29T09:00:51;18.70;;;17.80;;
3943;SDS011;1986;52.546;13.428;2024-03-29T09:03:19;18.80;;;17.90;;
3943;SDS011;1986;52.546;13.428;2024-03-29T09:05:48;18.70;;;17.80;;
3943;SDS011;1986;52.546;13.428;2024-03-29T09:08:17;18.70;;;17.90;;
3943;SDS011;1986;52.546;13.428;2024-03-29T09:10:44;18.90;;;18.00;;
3943;SDS011;1986;52.546;13.428;2024-03-29T09:13:11;19.30;;;18.40;;
3943;SDS011;1986;52.546;13.428;2024-03-29T09:15:40;18.77;;;17.87;;
3943;SDS011;1986;52.546;13.428;2024-03-29T09:18:07;18.90;;;18.00;;
3943;SDS011;1986;52.546;13.428;2024-03-29T09:20:42;19.40;;;18.50;;
3943;SDS011;1986;52.546;13.428;2024-03-29T09:23:10;19.90;;;18.90;;
3943;SDS011;1986;52.546;13.428;2024-03-29T09:25:40;19.30;;;18.30;;
3943;SDS011;1986;52.546;13.428;2024-03-29T09:28:07;19.47;;;18.47;;
3943;SDS011;1986;52.546;13.428;2024-03-29T09:30:35;19.87;;;18.87;;
3943;SDS011;1986;52.546;13.428;2024-03-29T09:33:03;20.10;;;19.10;;
3943;SDS011;1986;52.546;13.428;2024-03-29T09:35:32;19.60;;;18.60;;
3943;SDS011;1986;52.546;13.428;2024-03-29T09:38:02;20.30;;;19.20;;
3943;SDS011;1986;52.546;13.428;2024-03-29T09:40:30;20.00;;;19.00;;
3943;SDS011;1986;52.546;13.428;2024-03-29T09:43:00;20.37;;;19.30;;
3943;SDS011;1986;52.546;13.428;2024-03-29T09:45:28;20.37;;;19.27;;
3943;SDS011;1986;52.546;13.428;2024-03-29T09:47:59;20.00;;;19.00;;
3943;SDS011;1986;52.546;13.428;2024-03-29T09:50:30;19.90;;;18.90;;
3943;SDS011;1986;52.546;13.428;2024-03-29T09:53:01;20.20;;;19.20;;
3943;SDS011;1986;52.546;13.428;2024-03-29T09:55:28;20.50;;;19.43;;
3943;SDS011;1986;52.546;13.428;2024-03-29T09:57:56;20.03;;;19.03;;
3943;SDS011;1986;52.546;13.428;2024-03-29T10:00:26;20.80;;;19.80;;
3943;SDS011;1986;52.546;13.428;2024-03-29T10:02:55;21.87;;;20.77;;
3943;SDS011;1986;52.546;13.428;2024-03-29T10:05:23;20.80;;;19.80;;
3943;SDS011;1986;52.546;13.428;2024-03-29T10:07:53;21.53;;;20.43;;
3943;SDS011;1986;52.546;13.428;2024-03-29T10:10:23;21.53;;;20.43;;
3943;SDS011;1986;52.546;13.428;2024-03-29T10:12:50;21.70;;;20.60;;
3943;SDS011;1986;52.546;13.428;2024-03-29T10:15:17;21.47;;;20.37;;
3943;SDS011;1986;52.546;13.428;2024-03-29T10:17:49;21.73;;;20.63;;
3943;SDS011;1986;52.546;13.428;2024-03-29T10:20:17;22.00;;;20.80;;
3943;SDS011;1986;52.546;13.428;2024-03-29T10:22:48;21.10;;;20.00;;
3943;SDS011;1986;52.546;13.428;2024-03-29T10:25:17;21.10;;;20.00;;
3943;SDS011;1986;52.546;13.428;2024-03-29T10:27:45;21.00;;;19.90;;
3943;SDS011;1986;52.546;13.428;2024-03-29T10:30:13;21.30;;;20.30;;
3943;SDS011;1986;52.546;13.428;2024-03-29T10:32:44;20.90;;;19.90;;
3943;SDS011;1986;52.546;13.428;2024-03-29T10:35:14;20.70;;;19.70;;
3943;SDS011;1986;52.546;13.428;2024-03-29T10:37:41;20.40;;;19.40;;
3943;SDS011;1986;52.546;13.428;2024-03-29T10:40:09;19.50;;;18.60;;
3943;SDS011;1986;52.546;13.428;2024-03-29T10:42:53;19.70;;;18.80;;
3943;SDS011;1986;52.546;13.428;2024-03-29T10:45:23;19.97;;;19.07;;
3943;SDS011;1986;52.546;13.428;2024-03-29T10:47:51;20.20;;;19.30;;
3943;SDS011;1986;52.546;13.428;2024-03-29T10:50:19;20.30;;;19.30;;
3943;SDS011;1986;52.546;13.428;2024-03-29T10:52:49;20.23;;;19.23;;
3943;SDS011;1986;52.546;13.428;2024-03-29T10:55:19;19.67;;;18.77;;
3943;SDS011;1986;52.546;13.428;2024-03-29T10:57:51;19.60;;;18.70;;
3943;SDS011;1986;52.546;13.428;2024-03-29T11:00:20;19.60;;;18.70;;
3943;SDS011;1986;52.546;13.428;2024-03-29T11:02:48;19.40;;;18.50;;
3943;SDS011;1986;52.546;13.428;2024-03-29T11:05:17;19.50;;;18.60;;
3943;SDS011;1986;52.546;13.428;2024-03-29T11:07:47;19.00;;;18.10;;
3943;SDS011;1986;52.546;13.428;2024-03-29T11:10:17;18.90;;;18.10;;
3943;SDS011;1986;52.546;13.428;2024-03-29T11:12:57;19.10;;;18.20;;
3943;SDS011;1986;52.546;13.428;2024-03-29T11:15:34;19.00;;;18.10;;
3943;SDS011;1986;52.546;13.428;2024-03-29T11:18:06;19.00;;;18.20;;
3943;SDS011;1986;52.546;13.428;2024-03-29T11:20:34;19.50;;;18.60;;
3943;SDS011;1986;52.546;13.428;2024-03-29T11:23:05;19.00;;;18.10;;
3943;SDS011;1986;52.546;13.428;2024-03-29T11:25:39;19.20;;;18.30;;
3943;SDS011;1986;52.546;13.428;2024-03-29T11:28:08;19.50;;;18.50;;
3943;SDS011;1986;52.546;13.428;2024-03-29T11:30:41;19.20;;;18.20;;
3943;SDS011;1986;52.546;13.428;2024-03-29T11:35:55;19.67;;;18.67;;
3943;SDS011;1986;52.546;13.428;2024-03-29T11:38:32;20.10;;;19.10;;
3943;SDS011;1986;52.546;13.428;2024-03-29T11:41:01;19.50;;;18.50;;
3943;SDS011;1986;52.546;13.428;2024-03-29T11:43:37;19.70;;;18.70;;
3943;SDS011;1986;52.546;13.428;2024-03-29T11:46:11;20.23;;;19.23;;
3943;SDS011;1986;52.546;13.428;2024-03-29T11:48:39;19.80;;;18.80;;
3943;SDS011;1986;52.546;13.428;2024-03-29T11:51:08;19.70;;;18.70;;
3943;SDS011;1986;52.546;13.428;2024-03-29T11:53:36;19.47;;;18.47;;
3943;SDS011;1986;52.546;13.428;2024-03-29T11:56:04;19.70;;;18.70;;
3943;SDS011;1986;52.546;13.428;2024-03-29T11:58:32;19.70;;;18.70;;
3943;SDS011;1986;52.546;13.428;2024-03-29T12:01:01;19.80;;;18.80;;
3943;SDS011;1986;52.546;13.428;2024-03-29T12:03:29;19.73;;;18.73;;
3943;SDS011;1986;52.546;13.428;2024-03-29T12:05:57;19.40;;;18.40;;
3943;SDS011;1986;52.546;13.428;2024-03-29T12:08:27;21.17;;;19.90;;
3943;SDS011;1986;52.546;13.428;2024-03-29T12:10:55;21.80;;;20.50;;
3943;SDS011;1986;52.546;13.428;2024-03-29T12:13:25;20.60;;;19.50;;
3943;SDS011;1986;52.546;13.428;2024-03-29T12:15:52;20.00;;;19.00;;
3943;SDS011;1986;52.546;13.428;2024-03-29T12:18:21;20.03;;;19.03;;
3943;SDS011;1986;52.546;13.428;2024-03-29T12:20:50;20.10;;;19.10;;
3943;SDS011;1986;52.546;13.428;2024-03-29T12:23:21;20.30;;;19.30;;
3943;SDS011;1986;52.546;13.428;2024-03-29T12:25:48;19.40;;;18.40;;
3943;SDS011;1986;52.546;13.428;2024-03-29T12:28:17;19.67;;;18.67;;
3943;SDS011;1986;52.546;13.428;2024-03-29T12:30:45;19.00;;;18.10;;
3943;SDS011;1986;52.546;13.428;2024-03-29T12:33:13;18.90;;;18.00;;
3943;SDS011;1986;52.546;13.428;2024-03-29T12:35:42;19.20;;;18.30;;
3943;SDS011;1986;52.546;13.428;2024-03-29T12:38:10;19.40;;;18.50;;
3943;SDS011;1986;52.546;13.428;2024-03-29T12:40:40;19.50;;;18.50;;
3943;SDS011;1986;52.546;13.428;2024-03-29T12:43:09;19.90;;;18.90;;
3943;SDS011;1986;52.546;13.428;2024-03-29T12:45:38;20.57;;;19.47;;
3943;SDS011;1986;52.546;13.428;2024-03-29T12:48:09;20.40;;;19.40;;
3943;SDS011;1986;52.546;13.428;2024-03-29T12:50:36;21.60;;;20.50;;
3943;SDS011;1986;52.546;13.428;2024-03-29T12:53:09;21.57;;;20.40;;
3943;SDS011;1986;52.546;13.428;2024-03-29T12:55:39;21.40;;;20.20;;
3943;SDS011;1986;52.546;13.428;2024-03-29T12:58:09;21.60;;;20.40;;
3943;SDS011;1986;52.546;13.428;2024-03-29T13:00:36;22.50;;;21.20;;
3943;SDS011;1986;52.546;13.428;2024-03-29T13:03:03;22.30;;;21.00;;
3943;SDS011;1986;52.546;13.428;2024-03-29T13:05:31;22.80;;;21.50;;
3943;SDS011;1986;52.546;13.428;2024-03-29T13:08:00;22.70;;;21.40;;
3943;SDS011;1986;52.546;13.428;2024-03-29T13:10:29;22.90;;;21.60;;
3943;SDS011;1986;52.546;13.428;2024-03-29T13:12:56;22.60;;;21.30;;
3943;SDS011;1986;52.546;13.428;2024-03-29T13:15:24;22.90;;;21.60;;
3943;SDS011;1986;52.546;13.428;2024-03-29T13:17:53;23.30;;;21.90;;
3943;SDS011;1986;52.546;13.428;2024-03-29T13:20:22;23.63;;;22.23;;
3943;SDS011;1986;52.546;13.428;2024-03-29T13:22:52;23.40;;;22.00;;
3943;SDS011;1986;52.546;13.428;2024-03-29T13:25:20;23.30;;;21.90;;
3943;SDS011;1986;52.546;13.428;2024-03-29T13:27:50;22.40;;;21.10;;
3943;SDS011;1986;52.546;13.428;2024-03-29T13:30:20;23.33;;;21.93;;
3943;SDS011;1986;52.546;13.428;2024-03-29T13:32:47;23.63;;;22.23;;
3943;SDS011;1986;52.546;13.428;2024-03-29T13:35:15;23.50;;;22.10;;
3943;SDS011;1986;52.546;13.428;2024-03-29T13:37:45;23.97;;;22.50;;
3943;SDS011;1986;52.546;13.428;2024-03-29T13:40:19;23.60;;;22.30;;
3943;SDS011;1986;52.546;13.428;2024-03-29T13:42:47;24.30;;;22.90;;
3943;SDS011;1986;52.546;13.428;2024-03-29T13:45:16;23.90;;;22.50;;
3943;SDS011;1986;52.546;13.428;2024-03-29T13:47:44;23.30;;;21.90;;
3943;SDS011;1986;52.546;13.428;2024-03-29T13:50:12;24.30;;;22.90;;
3943;SDS011;1986;52.546;13.428;2024-03-29T13:52:40;24.20;;;22.80;;
3943;SDS011;1986;52.546;13.428;2024-03-29T13:55:08;24.10;;;22.60;;
3943;SDS011;1986;52.546;13.428;2024-03-29T13:57:35;24.43;;;22.93;;
3943;SDS011;1986;52.546;13.428;2024-03-29T14:00:03;25.07;;;23.57;;
3943;SDS011;1986;52.546;13.428;2024-03-29T14:02:35;24.60;;;23.10;;
3943;SDS011;1986;52.546;13.428;2024-03-29T14:05:02;25.00;;;23.50;;
3943;SDS011;1986;52.546;13.428;2024-03-29T14:07:29;24.40;;;22.90;;
3943;SDS011;1986;52.546;13.428;2024-03-29T14:09:56;24.80;;;23.30;;
3943;SDS011;1986;52.546;13.428;2024-03-29T14:12:24;24.70;;;23.20;;
3943;SDS011;1986;52.546;13.428;2024-03-29T14:14:51;24.63;;;23.13;;
3943;SDS011;1986;52.546;13.428;2024-03-29T14:17:18;25.50;;;23.90;;
3943;SDS011;1986;52.546;13.428;2024-03-29T14:19:52;25.50;;;23.90;;
3943;SDS011;1986;52.546;13.428;2024-03-29T14:22:24;25.03;;;23.53;;
3943;SDS011;1986;52.546;13.428;2024-03-29T14:24:51;25.60;;;24.00;;
3943;SDS011;1986;52.546;13.428;2024-03-29T14:27:18;25.50;;;24.00;;
3943;SDS011;1986;52.546;13.428;2024-03-29T14:29:49;25.00;;;23.50;;
3943;SDS011;1986;52.546;13.428;2024-03-29T14:32:16;25.20;;;23.70;;
3943;SDS011;1986;52.546;13.428;2024-03-29T14:34:43;25.30;;;23.80;;
3943;SDS011;1986;52.546;13.428;2024-03-29T14:37:13;25.30;;;23.80;;
3943;SDS011;1986;52.546;13.428;2024-03-29T14:39:41;25.00;;;23.50;;
3943;SDS011;1986;52.546;13.428;2024-03-29T14:42:09;25.03;;;23.60;;